createdAt,value
2017-09-04T00:01:05.882Z,8.07
2017-09-04T00:03:33.469Z,6.40
2017-09-04T00:06:00.919Z,6.33
2017-09-04T00:08:28.480Z,7.27
2017-09-04T00:10:55.935Z,6.90
2017-09-04T00:13:23.395Z,7.17
2017-09-04T00:15:51.145Z,7.60
2017-09-04T00:18:18.629Z,6.97
2017-09-04T00:20:46.105Z,6.43
2017-09-04T00:23:13.591Z,6.93
2017-09-04T00:25:41.022Z,6.50
2017-09-04T00:28:08.492Z,6.67
2017-09-04T00:30:35.934Z,6.70
2017-09-04T00:33:03.465Z,7.00
2017-09-04T00:35:31.022Z,7.60
2017-09-04T00:37:58.478Z,6.40
2017-09-04T00:40:25.914Z,6.80
2017-09-04T00:42:53.395Z,7.40
2017-09-04T00:45:20.833Z,7.00
2017-09-04T00:47:48.396Z,7.10
2017-09-04T00:50:15.943Z,6.50
2017-09-04T00:52:43.388Z,7.20
2017-09-04T00:55:10.995Z,7.60
2017-09-04T00:57:38.434Z,6.73
2017-09-04T01:00:05.906Z,6.23
2017-09-04T01:02:33.342Z,7.40
2017-09-04T01:05:00.888Z,7.80
2017-09-04T01:07:28.341Z,8.00
2017-09-04T01:09:55.799Z,8.10
2017-09-04T01:12:23.235Z,7.17
2017-09-04T01:14:50.756Z,8.60
2017-09-04T01:17:18.202Z,8.60
2017-09-04T01:19:46.432Z,9.33
2017-09-04T01:22:13.869Z,9.40
2017-09-04T01:24:41.345Z,9.13
2017-09-04T01:27:08.786Z,8.30
2017-09-04T01:29:36.253Z,10.27
2017-09-04T01:32:03.702Z,9.30
2017-09-04T01:34:31.277Z,9.17
2017-09-04T01:36:58.718Z,9.60
2017-09-04T01:39:26.183Z,10.40
2017-09-04T01:41:53.629Z,8.70
2017-09-04T01:44:21.105Z,9.67
2017-09-04T01:46:48.610Z,9.40
2017-09-04T01:49:16.082Z,8.20
2017-09-04T01:51:43.522Z,8.57
2017-09-04T01:54:10.994Z,8.77
2017-09-04T01:56:38.450Z,9.63
2017-09-04T01:59:05.923Z,8.50
2017-09-04T02:01:33.388Z,9.33
2017-09-04T02:04:00.854Z,8.27
2017-09-04T02:06:28.318Z,10.00
2017-09-04T02:08:55.769Z,10.50
2017-09-04T02:11:23.253Z,8.93
2017-09-04T02:13:50.708Z,8.67
2017-09-04T02:16:18.179Z,9.40
2017-09-04T02:18:45.693Z,8.07
2017-09-04T02:21:13.298Z,9.13
2017-09-04T02:23:40.760Z,10.83
2017-09-04T02:26:08.274Z,9.90
2017-09-04T02:28:35.729Z,9.70
2017-09-04T02:31:03.256Z,9.90
2017-09-04T02:33:30.689Z,8.53
2017-09-04T02:35:58.170Z,9.47
2017-09-04T02:38:25.664Z,8.40
2017-09-04T02:40:53.123Z,8.57
2017-09-04T02:43:20.566Z,8.93
2017-09-04T02:45:48.149Z,9.00
2017-09-04T02:48:15.596Z,8.27
2017-09-04T02:50:43.081Z,9.90
2017-09-04T02:53:10.542Z,8.83
2017-09-04T02:55:38.029Z,8.60
2017-09-04T02:58:05.561Z,8.50
2017-09-04T03:00:33.085Z,9.43
2017-09-04T03:03:00.527Z,7.70
2017-09-04T03:05:28.089Z,8.40
2017-09-04T03:07:55.546Z,7.50
2017-09-04T03:10:23.006Z,8.73
2017-09-04T03:12:50.456Z,8.47
2017-09-04T03:15:17.922Z,7.90
2017-09-04T03:17:45.379Z,8.63
2017-09-04T03:20:12.827Z,10.13
2017-09-04T03:22:40.291Z,10.43
2017-09-04T03:25:07.740Z,9.77
2017-09-04T03:27:35.503Z,9.73
2017-09-04T03:30:02.985Z,9.83
2017-09-04T03:32:30.452Z,10.07
2017-09-04T03:34:57.989Z,10.77
2017-09-04T03:37:25.446Z,9.03
2017-09-04T03:39:52.878Z,8.57
2017-09-04T03:42:20.373Z,8.07
2017-09-04T03:44:47.806Z,7.73
2017-09-04T03:47:15.262Z,8.20
2017-09-04T03:49:42.697Z,6.90
2017-09-04T03:52:10.164Z,7.90
2017-09-04T03:54:37.598Z,8.63
2017-09-04T03:57:05.091Z,9.37
2017-09-04T03:59:32.531Z,8.77
2017-09-04T04:02:00.005Z,7.27
2017-09-04T04:04:27.441Z,9.10
2017-09-04T04:06:54.902Z,8.87
2017-09-04T04:09:22.374Z,9.00
2017-09-04T04:11:49.932Z,9.70
2017-09-04T04:14:17.383Z,9.37
2017-09-04T04:16:44.947Z,10.40
2017-09-04T04:19:12.400Z,9.80
2017-09-04T04:21:39.963Z,10.07
2017-09-04T04:24:07.518Z,10.17
2017-09-04T04:26:35.002Z,10.90
2017-09-04T04:29:02.439Z,9.67
2017-09-04T04:31:29.997Z,10.37
2017-09-04T04:33:57.505Z,10.60
2017-09-04T04:36:24.974Z,9.33
2017-09-04T04:38:52.477Z,9.43
2017-09-04T04:41:19.937Z,9.00
2017-09-04T04:43:47.788Z,9.30
2017-09-04T04:46:15.347Z,9.10
2017-09-04T04:48:42.902Z,9.37
2017-09-04T04:51:10.330Z,8.93
2017-09-04T04:53:37.823Z,9.97
2017-09-04T04:56:05.380Z,9.30
2017-09-04T04:58:32.843Z,9.60
2017-09-04T05:01:00.399Z,10.83
2017-09-04T05:03:27.887Z,10.67
2017-09-04T05:05:55.402Z,10.30
2017-09-04T05:08:22.882Z,10.53
2017-09-04T05:10:50.335Z,10.47
2017-09-04T05:13:17.799Z,9.40
2017-09-04T05:15:45.332Z,9.73
2017-09-04T05:18:12.890Z,10.03
2017-09-04T05:20:40.366Z,10.30
2017-09-04T05:23:07.851Z,10.70
2017-09-04T05:25:35.298Z,9.53
2017-09-04T05:28:02.830Z,10.00
2017-09-04T05:30:30.301Z,10.60
2017-09-04T05:32:57.769Z,11.43
2017-09-04T05:35:25.434Z,11.07
2017-09-04T05:37:52.901Z,11.53
2017-09-04T05:40:20.405Z,10.67
2017-09-04T05:42:47.891Z,12.10
2017-09-04T05:45:15.367Z,11.27
2017-09-04T05:47:43.243Z,10.43
2017-09-04T05:50:10.739Z,7.10
2017-09-04T05:52:39.022Z,10.13
2017-09-04T05:55:06.498Z,10.57
2017-09-04T05:57:34.049Z,9.03
2017-09-04T06:00:01.549Z,8.30
2017-09-04T06:02:28.990Z,7.80
2017-09-04T06:04:56.441Z,7.70
2017-09-04T06:07:23.897Z,9.20
2017-09-04T06:09:51.361Z,8.37
2017-09-04T06:12:18.803Z,8.33
2017-09-04T06:14:46.265Z,9.67
2017-09-04T06:17:13.794Z,8.83
2017-09-04T06:19:41.256Z,7.93
2017-09-04T06:22:08.828Z,8.27
2017-09-04T06:24:36.297Z,9.50
2017-09-04T06:27:03.737Z,9.47
2017-09-04T06:29:31.249Z,9.20
2017-09-04T06:31:58.735Z,10.50
2017-09-04T06:34:26.230Z,9.90
2017-09-04T06:36:53.713Z,11.13
2017-09-04T06:39:21.520Z,9.60
2017-09-04T06:41:48.980Z,10.03
2017-09-04T06:44:16.449Z,11.13
2017-09-04T06:46:43.991Z,8.60
2017-09-04T06:49:11.541Z,8.73
2017-09-04T06:51:38.987Z,8.97
2017-09-04T06:54:06.518Z,8.50
2017-09-04T06:56:33.989Z,9.93
2017-09-04T06:59:01.458Z,9.00
2017-09-04T07:01:28.897Z,9.43
2017-09-04T07:03:56.338Z,9.43
2017-09-04T07:06:23.804Z,10.00
2017-09-04T07:08:51.263Z,9.73
2017-09-04T07:11:18.726Z,9.17
2017-09-04T07:13:46.209Z,8.50
2017-09-04T07:16:13.765Z,8.47
2017-09-04T07:18:41.690Z,9.80
2017-09-04T07:21:09.263Z,8.77
2017-09-04T07:23:36.754Z,9.30
2017-09-04T07:26:04.226Z,9.67
2017-09-04T07:28:31.678Z,10.00
2017-09-04T07:30:59.149Z,10.73
2017-09-04T07:33:26.690Z,11.30
2017-09-04T07:35:54.170Z,10.77
2017-09-04T07:38:21.639Z,12.20
2017-09-04T07:40:49.148Z,11.10
2017-09-04T07:43:16.606Z,13.50
2017-09-04T07:45:44.087Z,12.80
2017-09-04T07:48:11.534Z,12.73
2017-09-04T07:50:39.001Z,13.57
2017-09-04T07:53:06.446Z,13.53
2017-09-04T07:55:33.952Z,15.87
2017-09-04T07:58:01.408Z,17.17
2017-09-04T08:00:28.866Z,15.97
2017-09-04T08:02:56.336Z,14.50
2017-09-04T08:05:23.824Z,17.23
2017-09-04T08:07:51.289Z,12.20
2017-09-04T08:10:18.840Z,14.67
2017-09-04T08:12:46.322Z,16.43
2017-09-04T08:15:13.799Z,17.27
2017-09-04T08:17:41.265Z,18.80
2017-09-04T08:20:08.725Z,18.97
2017-09-04T08:22:36.193Z,18.80
2017-09-04T08:25:03.634Z,17.23
2017-09-04T08:27:31.097Z,17.53
2017-09-04T08:29:58.570Z,17.27
2017-09-04T08:32:26.062Z,17.93
2017-09-04T08:34:53.626Z,17.77
2017-09-04T08:37:21.098Z,17.20
2017-09-04T08:39:48.538Z,16.77
2017-09-04T08:42:16.084Z,17.60
2017-09-04T08:44:43.543Z,17.40
2017-09-04T08:47:11.025Z,16.47
2017-09-04T08:49:38.475Z,17.03
2017-09-04T08:52:06.087Z,16.53
2017-09-04T08:54:33.545Z,17.00
2017-09-04T08:57:01.027Z,16.73
2017-09-04T08:59:28.498Z,17.60
2017-09-04T09:01:55.952Z,15.93
2017-09-04T09:04:23.427Z,16.97
2017-09-04T09:06:50.946Z,16.70
2017-09-04T09:09:18.419Z,15.93
2017-09-04T09:11:45.968Z,15.90
2017-09-04T09:14:13.451Z,16.20
2017-09-04T09:16:40.909Z,16.60
2017-09-04T09:19:08.434Z,16.50
2017-09-04T09:21:35.883Z,16.87
2017-09-04T09:24:03.361Z,16.40
2017-09-04T09:26:30.847Z,16.60
2017-09-04T09:28:58.319Z,15.40
2017-09-04T09:31:25.767Z,15.37
2017-09-04T09:33:53.242Z,15.13
2017-09-04T09:36:20.697Z,16.60
2017-09-04T09:38:48.158Z,14.67
2017-09-04T09:41:15.751Z,14.43
2017-09-04T09:43:43.343Z,15.67
2017-09-04T09:46:10.890Z,13.70
2017-09-04T09:48:38.358Z,14.57
2017-09-04T09:51:05.830Z,15.10
2017-09-04T09:53:33.269Z,16.23
2017-09-04T09:56:00.767Z,13.53
2017-09-04T09:58:28.206Z,14.00
2017-09-04T10:00:55.688Z,15.00
2017-09-04T10:03:23.537Z,14.27
2017-09-04T10:05:51.007Z,14.40
2017-09-04T10:08:18.451Z,14.33
2017-09-04T10:10:45.926Z,13.13
2017-09-04T10:13:13.425Z,15.20
2017-09-04T10:15:40.927Z,15.87
2017-09-04T10:18:08.391Z,13.13
2017-09-04T10:20:35.870Z,13.03
2017-09-04T10:23:03.311Z,13.50
2017-09-04T10:25:30.810Z,11.50
2017-09-04T10:27:58.266Z,11.57
2017-09-04T10:30:25.755Z,11.60
2017-09-04T10:32:53.205Z,10.63
2017-09-04T10:35:20.670Z,11.53
2017-09-04T10:37:48.127Z,12.17
2017-09-04T10:40:15.614Z,12.97
2017-09-04T10:42:43.075Z,12.10
2017-09-04T10:45:10.564Z,10.90
2017-09-04T10:47:38.010Z,10.50
2017-09-04T10:50:05.473Z,11.37
2017-09-04T10:52:32.927Z,11.50
2017-09-04T10:55:00.435Z,11.50
2017-09-04T10:57:27.875Z,11.27
2017-09-04T10:59:55.342Z,10.10
2017-09-04T11:02:22.817Z,10.43
2017-09-04T11:04:50.290Z,11.00
2017-09-04T11:07:17.754Z,10.10
2017-09-04T11:09:45.742Z,11.10
2017-09-04T11:12:13.214Z,10.80
2017-09-04T11:14:40.683Z,10.20
2017-09-04T11:17:08.154Z,9.90
2017-09-04T11:19:35.609Z,10.97
2017-09-04T11:22:03.417Z,9.13
2017-09-04T11:24:30.890Z,8.90
2017-09-04T11:26:58.353Z,10.37
2017-09-04T11:29:25.785Z,8.97
2017-09-04T11:31:53.260Z,9.03
2017-09-04T11:34:21.002Z,7.90
2017-09-04T11:36:48.499Z,7.97
2017-09-04T11:39:16.011Z,6.40
2017-09-04T11:41:43.578Z,6.73
2017-09-04T11:44:11.021Z,8.30
2017-09-04T11:46:38.494Z,9.20
2017-09-04T11:49:05.962Z,9.73
2017-09-04T11:51:33.431Z,8.63
2017-09-04T11:54:00.896Z,7.90
2017-09-04T11:56:28.364Z,8.60
2017-09-04T11:58:55.830Z,7.50
2017-09-04T12:01:23.353Z,8.00
2017-09-04T12:03:50.941Z,7.07
2017-09-04T12:06:19.437Z,7.10
2017-09-04T12:08:46.910Z,8.83
2017-09-04T12:11:14.350Z,6.90
2017-09-04T12:13:41.816Z,8.00
2017-09-04T12:16:09.255Z,6.70
2017-09-04T12:18:36.717Z,8.40
2017-09-04T12:21:04.149Z,7.73
2017-09-04T12:23:31.623Z,8.30
2017-09-04T12:25:59.344Z,8.40
2017-09-04T12:28:26.858Z,8.10
2017-09-04T12:30:54.382Z,7.90
2017-09-04T12:33:21.850Z,8.27
2017-09-04T12:35:49.350Z,7.97
2017-09-04T12:38:16.945Z,8.97
2017-09-04T12:40:44.397Z,8.50
2017-09-04T12:43:11.892Z,9.10
2017-09-04T12:45:39.342Z,7.40
2017-09-04T12:48:06.824Z,6.90
2017-09-04T12:50:34.358Z,7.13
2017-09-04T12:53:01.799Z,6.70
2017-09-04T12:55:29.288Z,6.67
2017-09-04T12:57:56.743Z,8.00
2017-09-04T13:00:24.217Z,6.93
2017-09-04T13:02:51.658Z,8.30
2017-09-04T13:05:19.124Z,7.53
2017-09-04T13:07:46.565Z,6.20
2017-09-04T13:13:21.517Z,6.80
2017-09-04T13:15:54.586Z,6.57
2017-09-04T13:18:27.593Z,6.27
2017-09-04T13:21:00.798Z,6.13
2017-09-04T13:23:33.947Z,6.47
2017-09-04T13:26:22.351Z,6.77
2017-09-04T13:28:55.547Z,5.60
2017-09-04T13:31:28.487Z,7.93
2017-09-04T13:37:07.196Z,6.60
2017-09-04T13:39:51.809Z,6.37
2017-09-04T13:42:24.842Z,6.60
2017-09-04T13:44:57.990Z,5.53
2017-09-04T13:47:35.358Z,6.13
2017-09-04T13:50:05.037Z,6.80
2017-09-04T13:55:48.894Z,5.80
2017-09-04T14:01:35.938Z,6.80
2017-09-04T14:04:08.895Z,5.87
2017-09-04T14:06:42.110Z,7.43
2017-09-04T14:09:15.146Z,4.90
2017-09-04T14:11:48.097Z,5.10
2017-09-04T14:14:21.240Z,6.30
2017-09-04T14:16:51.205Z,4.50
2017-09-04T14:19:18.639Z,6.03
2017-09-04T14:21:46.074Z,5.83
2017-09-04T14:24:13.534Z,4.40
2017-09-04T14:26:40.978Z,7.33
2017-09-04T14:29:08.430Z,5.40
2017-09-04T14:31:35.877Z,5.03
2017-09-04T14:34:03.350Z,5.83
2017-09-04T14:36:30.793Z,5.30
2017-09-04T14:38:58.264Z,5.20
2017-09-04T14:41:25.710Z,4.50
2017-09-04T14:43:59.799Z,4.87
2017-09-04T14:46:38.099Z,4.43
2017-09-04T14:49:05.566Z,4.27
2017-09-04T14:51:33.015Z,2.87
2017-09-04T14:54:00.483Z,4.00
2017-09-04T14:56:28.346Z,3.00
2017-09-04T14:58:55.807Z,2.20
2017-09-04T15:01:23.283Z,2.97
2017-09-04T15:03:50.826Z,2.40
2017-09-04T15:06:18.269Z,3.00
2017-09-04T15:08:45.730Z,2.73
2017-09-04T15:11:13.166Z,2.17
2017-09-04T15:13:40.836Z,2.37
2017-09-04T15:16:08.312Z,1.80
2017-09-04T15:18:35.784Z,2.57
2017-09-04T15:21:03.230Z,2.20
2017-09-04T15:23:30.698Z,2.50
2017-09-04T15:25:58.160Z,1.97
2017-09-04T15:28:25.602Z,2.60
2017-09-04T15:30:53.058Z,2.70
2017-09-04T15:33:20.504Z,2.40
2017-09-04T15:35:47.968Z,2.90
2017-09-04T15:38:15.409Z,2.50
2017-09-04T15:40:42.967Z,2.40
2017-09-04T15:43:10.497Z,1.93
2017-09-04T15:45:38.113Z,2.00
2017-09-04T15:48:05.630Z,2.53
2017-09-04T15:50:33.200Z,2.47
2017-09-04T15:53:00.732Z,2.93
2017-09-04T15:55:28.215Z,2.73
2017-09-04T15:57:55.708Z,1.87
2017-09-04T16:00:23.172Z,2.30
2017-09-04T16:02:50.638Z,2.50
2017-09-04T16:05:18.103Z,2.50
2017-09-04T16:07:49.116Z,2.10
2017-09-04T16:10:16.581Z,2.40
2017-09-04T16:12:54.322Z,2.57
2017-09-04T16:15:21.827Z,3.37
2017-09-04T16:21:02.536Z,4.23
2017-09-04T16:23:39.903Z,3.80
2017-09-04T16:26:07.358Z,3.60
2017-09-04T16:28:35.588Z,3.47
2017-09-04T16:31:03.051Z,4.10
2017-09-04T16:33:30.500Z,3.77
2017-09-04T16:36:14.851Z,4.20
2017-09-04T16:38:43.139Z,3.97
2017-09-04T16:41:14.154Z,4.57
2017-09-04T16:46:47.073Z,5.23
2017-09-04T16:49:26.280Z,4.10
2017-09-04T16:51:59.308Z,4.53
2017-09-04T16:57:26.782Z,5.20
2017-09-04T16:59:54.239Z,5.23
2017-09-04T17:02:23.078Z,4.93
2017-09-04T17:04:50.846Z,6.70
2017-09-04T17:07:18.329Z,5.30
2017-09-04T17:09:48.882Z,4.77
2017-09-04T17:12:16.353Z,5.20
2017-09-04T17:14:43.817Z,4.97
2017-09-04T17:17:13.337Z,4.70
2017-09-04T17:19:46.402Z,4.10
2017-09-04T17:22:14.805Z,3.97
2017-09-04T17:24:42.740Z,4.50
2017-09-04T17:27:10.195Z,4.23
2017-09-04T17:29:37.666Z,4.47
2017-09-04T17:32:05.128Z,2.90
2017-09-04T17:34:32.591Z,4.07
2017-09-04T17:37:00.030Z,3.40
2017-09-04T17:39:27.518Z,4.97
2017-09-04T17:41:55.018Z,6.97
2017-09-04T17:44:22.473Z,4.47
2017-09-04T17:46:49.915Z,4.63
2017-09-04T17:49:17.373Z,3.70
2017-09-04T17:51:44.825Z,4.03
2017-09-04T17:54:12.284Z,4.57
2017-09-04T17:56:39.713Z,3.73
2017-09-04T17:59:07.179Z,4.33
2017-09-04T18:01:34.634Z,4.10
2017-09-04T18:04:02.103Z,4.10
2017-09-04T18:06:29.618Z,4.40
2017-09-04T18:08:57.079Z,5.03
2017-09-04T18:11:24.543Z,5.07
2017-09-04T18:13:52.025Z,4.40
2017-09-04T18:16:19.471Z,4.00
2017-09-04T18:18:46.959Z,4.10
2017-09-04T18:21:14.401Z,3.80
2017-09-04T18:23:41.863Z,4.70
2017-09-04T18:26:09.492Z,4.30
2017-09-04T18:28:36.988Z,4.07
2017-09-04T18:31:04.446Z,4.90
2017-09-04T18:33:32.616Z,4.93
2017-09-04T18:36:00.074Z,4.97
2017-09-04T18:38:27.514Z,4.50
2017-09-04T18:40:54.966Z,5.83
2017-09-04T18:43:22.406Z,5.00
2017-09-04T18:45:50.135Z,5.30
2017-09-04T18:48:17.575Z,5.20
2017-09-04T18:50:45.029Z,5.10
2017-09-04T18:53:12.462Z,4.60
2017-09-04T18:55:39.957Z,4.30
2017-09-04T18:58:07.389Z,4.83
2017-09-04T19:00:34.890Z,5.27
2017-09-04T19:03:02.418Z,5.67
2017-09-04T19:05:29.877Z,5.90
2017-09-04T19:07:57.329Z,6.90
2017-09-04T19:10:24.798Z,7.67
2017-09-04T19:12:52.338Z,5.63
2017-09-04T19:15:19.804Z,6.17
2017-09-04T19:17:47.251Z,5.17
2017-09-04T19:20:14.734Z,6.20
2017-09-04T19:22:42.179Z,5.87
2017-09-04T19:25:09.643Z,7.13
2017-09-04T19:27:37.106Z,5.20
2017-09-04T19:30:04.574Z,5.37
2017-09-04T19:32:32.005Z,5.40
2017-09-04T19:34:59.468Z,4.97
2017-09-04T19:37:26.925Z,5.30
2017-09-04T19:39:54.385Z,4.43
2017-09-04T19:42:21.817Z,4.53
2017-09-04T19:44:49.307Z,5.60
2017-09-04T19:47:16.763Z,4.67
2017-09-04T19:49:44.198Z,5.90
2017-09-04T19:52:11.658Z,5.43
2017-09-04T19:54:39.105Z,6.93
2017-09-04T19:57:06.573Z,5.50
2017-09-04T19:59:34.010Z,5.47
2017-09-04T20:02:01.507Z,5.70
2017-09-04T20:04:29.033Z,5.80
2017-09-04T20:06:56.544Z,5.70
2017-09-04T20:09:23.986Z,5.10
2017-09-04T20:11:51.481Z,4.70
2017-09-04T20:14:18.946Z,5.53
2017-09-04T20:16:46.511Z,5.63
2017-09-04T20:19:14.009Z,6.40
2017-09-04T20:21:41.470Z,5.50
2017-09-04T20:24:08.926Z,6.40
2017-09-04T20:26:36.386Z,6.00
2017-09-04T20:29:03.949Z,5.40
2017-09-04T20:31:31.527Z,5.23
2017-09-04T20:33:58.968Z,5.67
2017-09-04T20:36:26.506Z,5.00
2017-09-04T20:38:53.960Z,5.40
2017-09-04T20:41:21.470Z,5.40
2017-09-04T20:43:48.922Z,5.77
2017-09-04T20:46:16.459Z,5.63
2017-09-04T20:48:43.903Z,5.00
2017-09-04T20:51:11.375Z,5.70
2017-09-04T20:53:38.844Z,6.03
2017-09-04T20:56:06.394Z,6.33
2017-09-04T20:58:33.844Z,5.17
2017-09-04T21:01:01.309Z,5.63
2017-09-04T21:03:28.761Z,5.87
2017-09-04T21:05:56.250Z,5.27
2017-09-04T21:08:23.710Z,5.23
2017-09-04T21:10:51.146Z,5.40
2017-09-04T21:13:18.605Z,4.63
2017-09-04T21:15:46.049Z,4.93
2017-09-04T21:18:13.506Z,4.70
2017-09-04T21:20:40.949Z,4.57
2017-09-04T21:23:08.445Z,5.00
2017-09-04T21:25:35.910Z,5.83
2017-09-04T21:28:03.383Z,5.60
2017-09-04T21:30:30.819Z,5.10
2017-09-04T21:32:58.726Z,5.10
2017-09-04T21:35:26.167Z,5.53
2017-09-04T21:37:53.638Z,5.63
2017-09-04T21:40:21.074Z,5.40
2017-09-04T21:42:48.534Z,5.07
2017-09-04T21:45:15.974Z,5.77
2017-09-04T21:47:43.433Z,5.50
2017-09-04T21:50:10.883Z,5.60
2017-09-04T21:52:38.346Z,5.60
2017-09-04T21:55:05.806Z,4.93
2017-09-04T21:57:33.270Z,5.83
2017-09-04T22:00:00.723Z,5.90
2017-09-04T22:02:28.197Z,6.00
2017-09-04T22:04:55.686Z,5.50
2017-09-04T22:07:23.175Z,5.70
2017-09-04T22:09:50.619Z,5.80
2017-09-04T22:12:18.053Z,5.10
2017-09-04T22:14:45.509Z,6.37
2017-09-04T22:17:12.955Z,6.20
2017-09-04T22:19:40.449Z,6.33
2017-09-04T22:22:07.885Z,6.53
2017-09-04T22:24:35.353Z,6.10
2017-09-04T22:27:02.797Z,5.90
2017-09-04T22:29:30.273Z,6.50
2017-09-04T22:31:57.705Z,6.93
2017-09-04T22:34:25.199Z,6.47
2017-09-04T22:36:52.643Z,6.97
2017-09-04T22:39:20.125Z,6.47
2017-09-04T22:41:47.576Z,5.40
2017-09-04T22:44:15.038Z,5.90
2017-09-04T22:46:42.499Z,6.77
2017-09-04T22:49:09.960Z,7.10
2017-09-04T22:51:37.395Z,6.17
2017-09-04T22:54:04.862Z,6.50
2017-09-04T22:56:32.290Z,8.10
2017-09-04T22:59:01.122Z,6.63
2017-09-04T23:01:28.558Z,6.83
2017-09-04T23:03:56.027Z,6.20
2017-09-04T23:06:23.478Z,6.90
2017-09-04T23:08:50.937Z,6.87
2017-09-04T23:11:18.374Z,7.20
2017-09-04T23:13:45.848Z,6.67
2017-09-04T23:16:13.286Z,6.90
2017-09-04T23:18:40.768Z,6.87
2017-09-04T23:21:08.206Z,6.70
2017-09-04T23:23:35.689Z,7.23
2017-09-04T23:26:03.139Z,6.80
2017-09-04T23:28:36.282Z,7.43
2017-09-04T23:31:03.713Z,6.67
2017-09-04T23:33:31.182Z,7.10
2017-09-04T23:35:58.621Z,9.03
2017-09-04T23:38:26.108Z,6.43
2017-09-04T23:40:53.580Z,7.70
2017-09-04T23:43:21.039Z,8.97
2017-09-04T23:45:48.520Z,7.87
2017-09-04T23:48:15.971Z,9.50
2017-09-04T23:50:43.460Z,8.37
2017-09-04T23:53:10.910Z,8.07
2017-09-04T23:55:38.369Z,7.90
2017-09-04T23:58:05.801Z,8.17
